Time;durP1;ratioP1;P1;durP2;ratioP2;P2;SDS_P1;SDS_P2;PMS_P1;PMS_P2;Temp;Humidity;BMP_temperature;BMP_pressure;BME280_temperature;BME280_humidity;BME280_pressure;Samples;Min_cycle;Max_cycle;Signal;HPM_P1;HPM_P2
2022/06/14 03:08:07;;;;;;;4.80;4.60;;;;;;;;;;5834139;23;20444;31
2022/06/14 03:33:59;;;;;;;4.07;3.93;;;;;;;;;;5362599;23;20497;-89
2022/06/14 03:36:25;;;;;;;6.40;4.97;;;;;;;;;;4959228;29;20511;-91
2022/06/14 03:39:01;;;;;;;4.70;4.50;;;;;;;;;;4940358;29;20450;-91
2022/06/14 03:41:31;;;;;;;8.00;5.40;;;;;;;;;;4958190;29;20441;-91
2022/06/14 03:44:00;;;;;;;4.37;4.17;;;;;;;;;;4942470;29;20450;-90
2022/06/14 03:46:31;;;;;;;4.13;3.93;;;;;;;;;;4959651;29;21265;-91
2022/06/14 03:49:00;;;;;;;5.00;4.63;;;;;;;;;;4928118;29;20462;-90
2022/06/14 03:51:32;;;;;;;4.70;4.40;;;;;;;;;;4940245;29;20784;-94
2022/06/14 03:54:06;;;;;;;6.23;4.97;;;;;;;;;;4953241;28;20545;-87
2022/06/14 03:59:20;;;;;;;5.77;5.37;;;;;;;;;;5030075;23;20486;-91
2022/06/14 04:02:18;;;;;;;4.17;3.90;;;;;;;;;;4938967;29;20509;-96
2022/06/14 04:04:53;;;;;;;6.13;5.67;;;;;;;;;;4908615;29;20528;-95
2022/06/14 04:07:31;;;;;;;4.70;4.50;;;;;;;;;;4936862;29;20430;-95
2022/06/14 04:10:06;;;;;;;4.77;4.47;;;;;;;;;;4921430;29;20463;-92
2022/06/14 04:12:43;;;;;;;4.37;4.17;;;;;;;;;;4974163;29;20465;-94
2022/06/14 04:15:31;;;;;;;5.27;4.97;;;;;;;;;;4937207;29;20427;-94
2022/06/14 04:21:11;;;;;;;5.10;4.70;;;;;;;;;;4929884;29;20443;-95
2022/06/14 04:23:43;;;;;;;4.47;4.17;;;;;;;;;;4927218;29;20438;-95
2022/06/14 04:26:10;;;;;;;4.10;3.80;;;;;;;;;;5019307;23;20446;-91
2022/06/14 04:28:42;;;;;;;6.03;3.70;;;;;;;;;;4970233;29;20439;-95
2022/06/14 04:31:14;;;;;;;4.20;4.00;;;;;;;;;;4967568;29;20447;-95
2022/06/14 04:33:49;;;;;;;6.73;6.13;;;;;;;;;;4940516;29;20438;-93
2022/06/14 04:41:46;;;;;;;6.73;4.03;;;;;;;;;;5084734;23;20531;-93
2022/06/14 04:44:44;;;;;;;7.20;3.37;;;;;;;;;;4957004;29;20422;-93
2022/06/14 04:47:19;;;;;;;3.87;3.60;;;;;;;;;;4941177;29;20446;-93
2022/06/14 04:52:26;;;;;;;3.77;3.63;;;;;;;;;;5413700;23;20496;-96
2022/06/14 04:54:55;;;;;;;4.67;3.40;;;;;;;;;;4939220;29;20451;-89
2022/06/14 04:57:29;;;;;;;4.33;3.50;;;;;;;;;;4939747;28;20437;-93
2022/06/14 04:59:56;;;;;;;3.67;3.47;;;;;;;;;;4942462;28;20434;-95
2022/06/14 05:02:25;;;;;;;3.43;3.33;;;;;;;;;;5111695;23;20495;-93
2022/06/14 05:04:58;;;;;;;3.53;3.30;;;;;;;;;;5278394;23;20481;-92
2022/06/14 05:10:19;;;;;;;3.90;3.63;;;;;;;;;;5066722;23;20492;-94
2022/06/14 05:12:53;;;;;;;3.23;2.93;;;;;;;;;;4993374;28;20425;-93
2022/06/14 05:15:32;;;;;;;5.73;3.60;;;;;;;;;;5126700;23;20479;-91
2022/06/14 05:18:09;;;;;;;6.63;4.83;;;;;;;;;;4928461;28;20471;-94
2022/06/14 05:23:48;;;;;;;3.30;3.10;;;;;;;;;;4936345;29;20434;-91
2022/06/14 05:26:26;;;;;;;7.37;4.13;;;;;;;;;;4930223;29;20491;-91
2022/06/14 05:29:29;;;;;;;3.33;3.23;;;16.00;99.90;;;;;;4921212;29;20475;-94
2022/06/14 05:32:34;;;;;;;3.33;3.17;;;16.50;99.90;;;;;;4952928;29;20473;-93
2022/06/14 05:35:03;;;;;;;3.83;3.30;;;;;;;;;;4921273;29;20427;-94
2022/06/14 05:38:04;;;;;;;4.00;3.73;;;16.80;99.90;;;;;;4915895;29;20436;-94
2022/06/14 05:40:32;;;;;;;4.37;4.17;;;;;;;;;;4922138;29;20543;-93
2022/06/14 05:43:31;;;;;;;5.83;3.83;;;17.10;99.90;;;;;;4917541;29;20416;-93
2022/06/14 05:46:04;;;;;;;6.33;3.80;;;;;;;;;;4929310;29;20489;-90
2022/06/14 05:48:50;;;;;;;5.33;3.50;;;;;;;;;;4937973;28;20454;-93
2022/06/14 05:54:32;;;;;;;5.33;4.90;;;;;;;;;;4952043;29;20441;-95
2022/06/14 05:57:10;;;;;;;4.77;4.47;;;;;;;;;;4934128;29;20454;-92
2022/06/14 05:59:53;;;;;;;4.50;4.20;;;;;;;;;;4949584;29;20501;-91
2022/06/14 06:03:10;;;;;;;11.23;5.23;;;18.70;99.90;;;;;;4933910;29;20434;-93
2022/06/14 06:05:53;;;;;;;4.20;4.00;;;;;;;;;;4922427;29;20541;-95
2022/06/14 06:08:36;;;;;;;12.73;4.43;;;;;;;;;;4930797;29;20416;-89
2022/06/14 06:11:43;;;;;;;6.70;4.40;;;19.90;99.90;;;;;;4951549;29;20459;-95
2022/06/14 06:14:20;;;;;;;5.73;5.20;;;19.50;99.90;;;;;;4924143;29;20475;-91
2022/06/14 06:17:08;;;;;;;5.60;4.77;;;19.50;99.90;;;;;;4934046;29;20579;-95
2022/06/14 06:19:47;;;;;;;10.07;5.77;;;;;;;;;;4952376;29;20455;-93
2022/06/14 06:22:25;;;;;;;33.03;9.87;;;;;;;;;;4920571;29;20479;-93
2022/06/14 06:25:12;;;;;;;5.50;4.10;;;;;;;;;;4947231;29;20435;-90
2022/06/14 06:27:52;;;;;;;7.20;4.17;;;;;;;;;;4925597;29;20446;-91
2022/06/14 06:30:32;;;;;;;8.47;4.07;;;20.20;99.90;;;;;;4935193;29;20594;-93
2022/06/14 06:33:01;;;;;;;4.70;3.97;;;;;;;;;;4932960;28;20411;-91
2022/06/14 06:35:33;;;;;;;4.73;3.67;;;;;;;;;;4941614;29;20443;-90
2022/06/14 06:38:58;;;;;;;4.57;4.23;;;20.50;99.90;;;;;;4933107;28;20463;-93
2022/06/14 06:44:36;;;;;;;5.17;3.10;;;;;;;;;;4953141;29;20402;-91
2022/06/14 06:47:13;;;;;;;7.77;3.33;;;;;;;;;;4937402;28;20537;-93
2022/06/14 06:49:59;;;;;;;6.33;3.53;;;;;;;;;;5230059;23;20487;-95
2022/06/14 06:55:05;;;;;;;5.30;2.80;;;;;;;;;;4858944;23;21082;-88
2022/06/14 06:57:38;;;;;;;4.77;2.90;;;22.10;97.00;;;;;;4976533;28;20462;-95
2022/06/14 07:03:13;;;;;;;12.50;3.87;;;23.10;95.10;;;;;;5039035;23;20476;-91
2022/06/14 07:05:42;;;;;;;6.33;2.70;;;;;;;;;;4917216;29;20477;-93
2022/06/14 07:08:45;;;;;;;9.07;3.40;;;23.50;83.20;;;;;;4885580;29;20441;-93
2022/06/14 07:11:26;;;;;;;2.57;2.37;;;24.10;91.60;;;;;;4883498;29;20457;-90
2022/06/14 07:14:23;;;;;;;3.17;2.77;;;;;;;;;;4918620;29;20508;-92
2022/06/14 07:17:11;;;;;;;6.03;2.57;;;24.70;91.00;;;;;;4917587;29;20487;-92
2022/06/14 07:19:45;;;;;;;2.57;2.37;;;24.70;91.00;;;;;;5184262;23;20588;-90
2022/06/14 07:22:22;;;;;;;5.30;3.03;;;24.80;89.10;;;;;;4956825;29;20446;-90
2022/06/14 07:30:29;;;;;;;7.50;3.30;;;25.10;85.70;;;;;;4553863;27;16782771;-91
2022/06/14 07:32:56;;;;;;;5.00;3.10;;;;;;;;;;5181070;22;20486;-88
2022/06/14 07:35:45;;;;;;;4.67;2.63;;;;;;;;;;5038982;28;20424;-87
2022/06/14 07:38:19;;;;;;;2.40;2.03;;;;;;;;;;5044636;28;20450;-87
2022/06/14 07:41:21;;;;;;;4.80;2.23;;;26.80;81.50;;;;;;5011841;28;20435;-86
2022/06/14 07:44:00;;;;;;;4.00;2.37;;;27.40;54.70;;;;;;5045417;28;20461;-87
2022/06/14 07:46:58;;;;;;;2.90;2.30;;;27.60;53.00;;;;;;5018137;28;20468;-87
2022/06/14 07:49:56;;;;;;;2.43;2.23;;;25.80;49.70;;;;;;5024915;28;21023;-87
2022/06/14 07:52:45;;;;;;;3.97;2.03;;;28.40;69.90;;;;;;5017769;28;20442;-89
2022/06/14 07:56:13;;;;;;;;;;;;;;;;;;;;;
2022/06/14 07:58:46;;;;;;;3.70;2.90;;;30.10;47.60;;;;;;5010718;28;20467;-87
2022/06/14 08:01:28;;;;;;;2.70;2.07;;;30.30;60.60;;;;;;5038229;28;20483;-87
2022/06/14 08:04:10;;;;;;;3.23;2.70;;;30.40;43.70;;;;;;5034015;28;20961;-88
2022/06/14 08:07:17;;;;;;;2.87;2.70;;;29.30;46.60;;;;;;5056887;28;20442;-88
2022/06/14 08:10:11;;;;;;;6.17;4.37;;;29.40;44.80;;;;;;5037927;28;20466;-87
2022/06/14 08:13:10;;;;;;;4.73;4.33;;;29.70;43.40;;;;;;5042965;28;20849;-88
2022/06/14 08:15:55;;;;;;;4.43;4.13;;;29.40;44.20;;;;;;5036509;28;20427;-89
2022/06/14 08:18:38;;;;;;;3.57;3.33;;;29.90;44.90;;;;;;5039689;28;20426;-88
2022/06/14 08:21:32;;;;;;;4.53;3.67;;;28.90;57.90;;;;;;5035531;28;20963;-89
2022/06/14 08:24:33;;;;;;;5.40;4.23;;;29.00;45.50;;;;;;5019342;28;20436;-86
2022/06/14 08:27:05;;;;;;;4.23;3.43;;;28.40;46.00;;;;;;5024574;28;20470;-87
2022/06/14 08:29:34;;;;;;;5.10;4.60;;;28.10;48.90;;;;;;5031107;28;20489;-85
2022/06/14 08:32:27;;;;;;;5.43;5.00;;;26.80;71.60;;;;;;5028072;28;20427;-86
2022/06/14 08:35:01;;;;;;;6.80;5.20;;;26.90;49.50;;;;;;5014921;28;20441;-86
2022/06/14 08:37:38;;;;;;;5.47;4.97;;;;;;;;;;5024661;28;20423;-86
2022/06/14 08:40:51;;;;;;;12.53;4.90;;;25.10;47.90;;;;;;5005846;28;20404;-85
2022/06/14 08:43:29;;;;;;;5.20;4.70;;;23.80;49.40;;;;;;4934598;29;20455;-87
2022/06/14 08:46:22;;;;;;;6.10;5.37;;;23.70;66.70;;;;;;4963226;29;20509;-87
2022/06/14 08:49:15;;;;;;;5.13;4.63;;;23.50;48.40;;;;;;5014243;28;20573;-88
2022/06/14 08:52:06;;;;;;;8.60;6.13;;;23.00;50.10;;;;;;5021844;28;20449;-88
2022/06/14 08:55:06;;;;;;;5.97;5.00;;;22.50;53.30;;;;;;5056479;28;20975;-89
2022/06/14 08:58:10;;;;;;;4.20;3.80;;;22.90;55.50;;;;;;5038045;28;20447;-87
2022/06/14 09:00:57;;;;;;;7.03;4.03;;;24.20;51.80;;;;;;5032245;28;20431;-89
2022/06/14 09:03:45;;;;;;;4.13;3.83;;;26.00;44.90;;;;;;5023784;28;20446;-87
2022/06/14 09:06:39;;;;;;;4.40;3.63;;;26.40;45.60;;;;;;5038675;28;20431;-89
2022/06/14 09:09:41;;;;;;;4.13;3.83;;;28.00;63.20;;;;;;5014345;28;20504;-87
2022/06/14 09:12:43;;;;;;;3.97;3.67;;;29.30;66.40;;;;;;4983534;28;20685;-91
2022/06/14 09:15:36;;;;;;;2.50;2.50;;;29.40;49.50;;;;;;5024329;28;20444;-87
2022/06/14 09:18:12;;;;;;;4.67;3.50;;;;;;;;;;5008481;28;20788;-89
2022/06/14 09:21:04;;;;;;;4.37;3.40;;;31.60;59.30;;;;;;5014340;28;20993;-90
2022/06/14 09:23:39;;;;;;;5.40;4.93;;;32.00;43.00;;;;;;5029374;28;20510;-91
2022/06/14 09:26:11;;;;;;;4.20;3.80;;;31.40;62.10;;;;;;5009839;28;20731;-91
2022/06/14 09:29:14;;;;;;;4.00;3.70;;;31.10;48.10;;;;;;5015965;28;20432;-89
2022/06/14 09:32:27;;;;;;;6.73;4.27;;;31.90;46.90;;;;;;5013749;28;20423;-86
2022/06/14 09:35:10;;;;;;;4.60;4.20;;;33.70;44.80;;;;;;5024690;28;20495;-89
2022/06/14 09:37:54;;;;;;;4.33;4.03;;;;;;;;;;5026634;28;20442;-90
2022/06/14 09:40:45;;;;;;;4.40;4.13;;;30.20;47.50;;;;;;5059043;22;20539;-89
2022/06/14 09:43:31;;;;;;;5.63;4.50;;;29.50;43.50;;;;;;5011064;28;20434;-88
2022/06/14 09:46:16;;;;;;;5.23;4.90;;;29.40;43.10;;;;;;5012051;28;20452;-89
2022/06/14 09:48:48;;;;;;;4.90;4.57;;;28.30;48.50;;;;;;5016557;28;20448;-86
2022/06/14 09:51:57;;;;;;;5.17;4.67;;;28.20;50.80;;;;;;4997524;28;20503;-85
2022/06/14 09:54:47;;;;;;;5.03;3.70;;;28.70;45.80;;;;;;5007178;28;20519;-89
2022/06/14 09:57:59;;;;;;;3.47;3.20;;;30.10;45.80;;;;;;5011960;28;20454;-90
2022/06/14 10:00:49;;;;;;;3.23;3.10;;;31.50;53.70;;;;;;5023269;28;20486;-90
2022/06/14 10:03:41;;;;;;;6.00;5.07;;;31.60;43.40;;;;;;5010070;28;20994;-90
2022/06/14 10:06:31;;;;;;;4.77;3.90;;;32.80;41.20;;;;;;5003411;28;21128;-89
2022/06/14 10:09:09;;;;;;;5.20;3.10;;;33.60;40.60;;;;;;5024388;28;20813;-89
2022/06/14 10:12:13;;;;;;;3.70;3.40;;;33.30;39.30;;;;;;5010771;28;20975;-90
2022/06/14 10:15:04;;;;;;;4.00;3.63;;;34.50;39.50;;;;;;4982040;28;20435;-87
2022/06/14 10:18:07;;;;;;;4.07;3.87;;;34.20;41.50;;;;;;4994034;28;20420;-87
2022/06/14 10:20:36;;;;;;;4.53;4.23;;;35.10;39.70;;;;;;5002378;28;20478;-88
2022/06/14 10:23:11;;;;;;;5.07;4.13;;;33.10;41.70;;;;;;5014160;28;20449;-89
2022/06/14 10:29:01;;;;;;;7.73;4.50;;;31.80;39.30;;;;;;5006014;28;20504;-90
2022/06/14 10:32:08;;;;;;;4.30;3.90;;;33.80;44.00;;;;;;5014383;28;20494;-91
2022/06/14 10:34:57;;;;;;;6.53;5.13;;;30.00;55.00;;;;;;5006486;28;20436;-85
2022/06/14 10:38:00;;;;;;;5.60;4.80;;;29.80;45.10;;;;;;4989561;28;20432;-89
2022/06/14 10:40:40;;;;;;;5.33;4.90;;;26.90;42.30;;;;;;5010274;28;20489;-88
2022/06/14 10:43:11;;;;;;;4.70;4.43;;;31.10;46.80;;;;;;5005778;28;20440;-89
2022/06/14 10:45:57;;;;;;;5.97;4.10;;;29.20;42.90;;;;;;5010566;28;20458;-89
2022/06/14 10:49:01;;;;;;;5.23;4.93;;;30.00;44.10;;;;;;4993264;28;20423;-88
2022/06/14 10:51:45;;;;;;;5.90;4.63;;;;;;;;;;5011601;28;20447;-89
2022/06/14 10:54:53;;;;;;;5.17;4.77;;;31.70;39.80;;;;;;5016101;28;20462;-87
2022/06/14 10:57:57;;;;;;;5.13;4.93;;;32.00;38.30;;;;;;4980662;28;20985;-88
2022/06/14 11:00:46;;;;;;;7.87;5.07;;;31.30;38.90;;;;;;5000821;28;21041;-91
2022/06/14 11:03:20;;;;;;;7.57;5.10;;;31.10;37.90;;;;;;5008578;28;20958;-89
2022/06/14 11:05:59;;;;;;;5.22;4.93;;;29.90;45.70;;;;;;4808662;28;10001286;-91
2022/06/14 11:08:39;;;;;;;5.10;4.73;;;30.50;52.60;;;;;;5008485;28;20396;-90
2022/06/14 11:11:53;;;;;;;6.50;5.30;;;31.40;45.00;;;;;;5010714;28;20432;-94
2022/06/14 11:14:55;;;;;;;4.80;4.53;;;33.20;43.70;;;;;;5021848;28;20455;-89
2022/06/14 11:17:43;;;;;;;4.57;4.27;;;34.70;40.70;;;;;;5007259;28;20793;-88
2022/06/14 11:20:09;;;;;;;5.03;4.60;;;;;;;;;;5008390;28;20463;-88
2022/06/14 11:22:44;;;;;;;4.43;4.13;;;33.20;42.10;;;;;;5006260;28;20467;-86
2022/06/14 11:25:44;;;;;;;3.93;3.83;;;33.60;40.30;;;;;;4996474;28;20452;-86
2022/06/14 11:28:36;;;;;;;5.10;4.60;;;33.40;40.30;;;;;;5001725;28;20448;-87
2022/06/14 11:31:26;;;;;;;3.90;3.70;;;33.50;39.30;;;;;;5005908;28;20423;-90
2022/06/14 11:34:26;;;;;;;4.83;4.40;;;34.60;38.20;;;;;;4996613;28;20483;-90
2022/06/14 11:37:11;;;;;;;6.10;5.60;;;35.00;37.70;;;;;;5014754;28;20441;-91
2022/06/14 11:40:01;;;;;;;5.83;5.27;;;34.70;40.50;;;;;;5026636;28;20494;-88
2022/06/14 11:42:31;;;;;;;5.23;4.73;;;33.70;38.50;;;;;;5005232;28;20548;-92
2022/06/14 11:45:15;;;;;;;5.87;5.30;;;33.90;39.30;;;;;;5027828;28;20470;-90
2022/06/14 11:48:12;;;;;;;5.67;5.10;;;32.70;36.90;;;;;;5008117;28;20447;-91
2022/06/14 11:51:13;;;;;;;6.10;5.50;;;31.50;36.80;;;;;;5021185;28;20439;-90
2022/06/14 11:54:24;;;;;;;5.73;5.40;;;32.80;37.30;;;;;;5010317;28;20435;-88
2022/06/14 11:57:07;;;;;;;5.30;5.00;;;32.90;37.40;;;;;;5013865;28;20563;-91
2022/06/14 11:59:45;;;;;;;5.10;4.87;;;33.50;38.10;;;;;;5002821;28;20548;-90
2022/06/14 12:02:52;;;;;;;6.00;5.60;;;32.20;57.50;;;;;;5001140;28;20421;-91
2022/06/14 12:05:44;;;;;;;5.83;5.33;;;32.50;57.70;;;;;;4938937;29;20533;-89
2022/06/14 12:08:31;;;;;;;5.50;5.00;;;32.70;41.40;;;;;;4997944;28;20426;-92
2022/06/14 12:11:19;;;;;;;5.80;5.23;;;32.80;43.30;;;;;;5020096;28;20522;-90
2022/06/14 12:14:10;;;;;;;6.70;6.07;;;32.90;40.90;;;;;;5012988;28;20448;-89
2022/06/14 12:17:41;;;;;;;5.93;5.43;;;32.60;40.70;;;;;;5032124;28;20443;-90
2022/06/14 12:20:16;;;;;;;7.27;4.63;;;32.80;40.70;;;;;;5008185;28;20467;-90
2022/06/14 12:23:12;;;;;;;7.27;6.00;;;32.80;43.00;;;;;;5016518;28;20465;-87
2022/06/14 12:29:39;;;;;;;6.03;5.57;;;34.80;37.70;;;;;;5111776;22;20512;-89
2022/06/14 12:32:28;;;;;;;7.87;5.50;;;31.70;58.30;;;;;;5008194;28;20442;-87
2022/06/14 12:35:02;;;;;;;7.90;6.57;;;32.00;46.20;;;;;;5004156;28;20435;-85
2022/06/14 12:38:01;;;;;;;5.37;5.10;;;33.50;49.80;;;;;;5025680;28;20441;-86
2022/06/14 12:40:46;;;;;;;6.03;5.60;;;32.80;47.80;;;;;;5032842;28;20439;-86
2022/06/14 12:43:41;;;;;;;5.23;4.77;;;33.70;47.90;;;;;;5029379;28;20451;-87
2022/06/14 12:46:15;;;;;;;5.70;5.20;;;34.50;50.50;;;;;;4975442;28;20500;-86
2022/06/14 12:49:05;;;;;;;4.80;4.50;;;33.90;35.80;;;;;;4305649;28;10000720;-85
2022/06/14 12:51:59;;;;;;;4.90;4.60;;;34.30;34.20;;;;;;5041066;28;20273;-84
2022/06/14 12:54:44;;;;;;;6.40;4.50;;;34.40;34.10;;;;;;5048146;28;20453;-88
2022/06/14 12:57:29;;;;;;;4.97;4.57;;;33.50;36.20;;;;;;5046771;28;20474;-89
2022/06/14 13:00:09;;;;;;;4.80;4.60;;;33.80;33.80;;;;;;5040888;28;20529;-86
2022/06/14 13:03:01;;;;;;;5.80;5.30;;;33.90;33.90;;;;;;5032236;28;20426;-89
2022/06/14 13:05:33;;;;;;;4.77;4.30;;;33.30;52.40;;;;;;5043196;28;20436;-86
2022/06/14 13:08:31;;;;;;;5.13;4.13;;;33.90;35.70;;;;;;5030460;28;20449;-89
2022/06/14 13:10:57;;;;;;;4.77;4.47;;;34.50;50.80;;;;;;5005871;28;20432;-89
2022/06/14 13:13:47;;;;;;;4.47;4.20;;;34.70;34.90;;;;;;5027605;28;20462;-90
2022/06/14 13:16:26;;;;;;;5.73;5.03;;;35.20;51.10;;;;;;5035223;28;20529;-88
2022/06/14 13:19:22;;;;;;;4.30;4.07;;;36.70;35.40;;;;;;5029453;28;20484;-87
2022/06/14 13:22:02;;;;;;;4.90;4.60;;;34.50;51.90;;;;;;5033191;28;20464;-88
2022/06/14 13:24:40;;;;;;;7.10;6.13;;;34.90;48.20;;;;;;5043313;28;20493;-89
2022/06/14 13:27:30;;;;;;;5.30;5.00;;;34.80;37.40;;;;;;5050595;28;20411;-89
2022/06/14 13:30:07;;;;;;;4.60;4.30;;;34.50;37.10;;;;;;5044064;28;20490;-92
2022/06/14 13:33:08;;;;;;;4.90;4.50;;;34.30;50.50;;;;;;5013540;28;20430;-91
2022/06/14 13:36:16;;;;;;;5.50;5.10;;;34.10;51.00;;;;;;5023139;28;20505;-88
2022/06/14 13:39:20;;;;;;;4.30;4.10;;;34.60;34.80;;;;;;5035790;28;20992;-90
2022/06/14 13:42:18;;;;;;;4.83;4.63;;;33.30;50.60;;;;;;5052302;28;20574;-89
2022/06/14 13:45:10;;;;;;;4.23;3.97;;;33.30;36.80;;;;;;5044346;28;20490;-90
2022/06/14 13:48:07;;;;;;;4.37;4.07;;;32.70;33.00;;;;;;5042430;28;20422;-89
2022/06/14 13:50:41;;;;;;;4.17;3.67;;;33.30;33.70;;;;;;5006493;28;20492;-87
2022/06/14 13:53:31;;;;;;;4.00;3.80;;;34.00;51.90;;;;;;5042522;28;20425;-86
2022/06/14 13:56:19;;;;;;;4.97;4.77;;;34.30;50.70;;;;;;4995204;28;20920;-89
2022/06/14 13:58:45;;;;;;;3.80;3.70;;;;;;;;;;5034155;28;20505;-90
2022/06/14 14:01:25;;;;;;;4.90;4.50;;;34.40;34.20;;;;;;5031873;28;20430;-91
2022/06/14 14:04:03;;;;;;;5.10;4.90;;;34.40;51.50;;;;;;5012065;28;20430;-87
2022/06/14 14:07:09;;;;;;;3.90;3.67;;;34.30;36.20;;;;;;5005367;28;20463;-89
2022/06/14 14:10:04;;;;;;;4.83;4.47;;;33.20;36.90;;;;;;5005566;28;20431;-90
2022/06/14 14:12:41;;;;;;;3.87;3.67;;;32.20;37.40;;;;;;5007315;28;20423;-90
2022/06/14 14:16:06;;;;;;;4.73;4.53;;;32.10;49.60;;;;;;5007106;28;20473;-91
2022/06/14 14:18:44;;;;;;;4.67;4.27;;;31.90;51.50;;;;;;5024042;28;20538;-87
2022/06/14 14:21:26;;;;;;;4.80;4.40;;;32.60;36.90;;;;;;5056876;28;20441;-90
2022/06/14 14:24:35;;;;;;;7.10;4.23;;;31.70;33.80;;;;;;5020410;28;20434;-89
2022/06/14 14:27:34;;;;;;;4.60;4.40;;;31.00;35.60;;;;;;5044518;28;21021;-91
2022/06/14 14:30:27;;;;;;;5.00;4.20;;;31.30;51.90;;;;;;5045712;28;20481;-91
2022/06/14 14:33:18;;;;;;;4.50;4.10;;;31.10;35.50;;;;;;5030225;28;20609;-88
2022/06/14 14:36:32;;;;;;;;;;;;;;;;;;;;;
2022/06/14 14:39:24;;;;;;;4.30;4.00;;;30.10;50.50;;;;;;5056813;28;20489;-91
2022/06/14 14:42:27;;;;;;;4.30;3.90;;;30.00;37.20;;;;;;5045041;28;20422;-91
2022/06/14 14:50:13;;;;;;;3.63;3.43;;;;;;;;;;5090286;22;21054;-91
2022/06/14 14:52:57;;;;;;;4.00;3.57;;;29.00;39.50;;;;;;5043730;28;20496;-89
2022/06/14 14:55:53;;;;;;;6.50;4.40;;;28.30;37.60;;;;;;5062454;28;20466;-89
2022/06/14 14:58:43;;;;;;;5.50;5.20;;;28.80;38.30;;;;;;5005218;28;20547;-89
2022/06/14 15:07:45;;;;;;;12.73;11.60;;;26.90;39.00;;;;;;5029672;28;20434;-89
2022/06/14 15:10:17;;;;;;;5.17;4.80;;;26.00;38.20;;;;;;5027544;28;20435;-90
2022/06/14 15:12:48;;;;;;;7.33;4.93;;;25.80;42.80;;;;;;5016373;28;20448;-84
2022/06/14 15:15:31;;;;;;;6.83;6.23;;;25.70;57.90;;;;;;5040752;28;20493;-91
2022/06/14 15:21:50;;;;;;;;;;;;;;;;;;;;;
2022/06/14 15:24:50;;;;;;;9.23;4.80;;;25.20;41.00;;;;;;5066679;28;20461;-91
2022/06/14 15:27:18;;;;;;;5.43;4.40;;;25.30;43.50;;;;;;5018650;28;20441;-90
2022/06/14 15:29:58;;;;;;;4.90;4.50;;;25.20;41.20;;;;;;5064905;28;20429;-89
2022/06/14 15:32:30;;;;;;;4.43;4.03;;;25.20;41.10;;;;;;5057550;28;20421;-90
2022/06/14 15:34:58;;;;;;;7.47;6.87;;;25.10;42.50;;;;;;5035049;28;20444;-88
2022/06/14 15:37:29;;;;;;;11.10;10.10;;;25.00;42.20;;;;;;5072914;28;20451;-87
2022/06/14 15:40:04;;;;;;;4.53;4.23;;;24.80;57.30;;;;;;5033975;28;20556;-89
2022/06/14 15:42:39;;;;;;;4.20;3.90;;;25.00;54.90;;;;;;5015142;28;20426;-88
2022/06/14 15:45:34;;;;;;;4.73;4.40;;;25.00;54.90;;;;;;5025631;28;20761;-88
2022/06/14 15:48:30;;;;;;;6.07;4.07;;;25.00;40.70;;;;;;5031972;28;20875;-88
2022/06/14 15:51:03;;;;;;;4.60;4.30;;;24.80;43.60;;;;;;5072688;28;20472;-86
2022/06/14 15:53:41;;;;;;;4.47;4.07;;;24.80;43.60;;;;;;5070566;28;20545;-86
2022/06/14 15:56:22;;;;;;;4.47;3.93;;;24.80;41.90;;;;;;5057409;28;20421;-88
2022/06/14 15:58:53;;;;;;;4.60;4.47;;;24.80;44.40;;;;;;5021161;28;20461;-88
2022/06/14 16:01:58;;;;;;;5.30;4.97;;;24.80;41.90;;;;;;5060146;28;20518;-88
2022/06/14 16:04:45;;;;;;;;;;;;;;;;;;;;;
2022/06/14 16:13:44;;;;;;;5.83;5.40;;;24.50;41.70;;;;;;5267725;22;20482;-90
2022/06/14 16:16:31;;;;;;;5.27;4.97;;;24.40;55.20;;;;;;4991066;28;20430;-90
2022/06/14 16:19:19;;;;;;;4.73;4.53;;;24.50;41.20;;;;;;4839727;22;10000049;-90
2022/06/14 16:22:02;;;;;;;;;;;;;;;;;;;;;
2022/06/14 16:24:32;;;;;;;5.83;5.33;;;24.40;43.50;;;;;;5044760;28;20536;-87
2022/06/14 16:27:22;;;;;;;5.83;5.27;;;24.40;40.90;;;;;;5035464;28;20445;-91
2022/06/14 16:30:10;;;;;;;4.83;4.63;;;24.50;41.60;;;;;;5029017;28;20503;-90
2022/06/14 16:33:16;;;;;;;8.33;4.53;;;23.50;41.80;;;;;;5039578;28;20434;-89
2022/06/14 16:36:26;;;;;;;5.83;4.87;;;24.40;42.60;;;;;;5022512;28;20457;-90
2022/06/14 16:39:17;;;;;;;5.70;5.40;;;24.30;42.00;;;;;;5045572;28;20492;-88
2022/06/14 16:41:49;;;;;;;5.87;4.90;;;24.30;59.00;;;;;;5048755;28;20434;-89
2022/06/14 16:44:31;;;;;;;5.33;4.93;;;24.30;44.50;;;;;;5047764;28;20432;-90
2022/06/14 16:47:05;;;;;;;10.73;5.10;;;24.20;44.20;;;;;;5046531;28;20798;-92
2022/06/14 16:49:44;;;;;;;7.30;5.67;;;24.10;42.00;;;;;;5029609;28;20422;-91
2022/06/14 16:52:29;;;;;;;7.70;6.90;;;24.20;44.60;;;;;;5104454;22;20466;-91
2022/06/14 16:55:09;;;;;;;5.23;4.67;;;24.30;58.90;;;;;;5032508;28;20434;-90
2022/06/14 16:57:43;;;;;;;6.60;5.70;;;24.30;56.10;;;;;;5020659;28;20427;-91
2022/06/14 17:19:53;;;;;;;5.43;4.77;;;24.10;56.70;;;;;;5561142;22;20485;-92
2022/06/14 17:30:11;;;;;;;5.90;5.47;;;24.10;61.30;;;;;;5041699;28;20469;-90
2022/06/14 17:33:02;;;;;;;5.10;4.80;;;24.00;45.70;;;;;;5023850;28;20831;-90
2022/06/14 17:35:56;;;;;;;5.60;5.20;;;23.80;45.50;;;;;;5044141;28;20432;-93
2022/06/14 17:38:31;;;;;;;4.73;4.47;;;23.90;45.80;;;;;;5046295;28;20521;-85
2022/06/14 17:41:12;;;;;;;6.47;5.70;;;23.80;57.40;;;;;;5011738;28;21078;-92
2022/06/14 17:44:13;;;;;;;6.17;5.70;;;23.90;43.60;;;;;;5029950;28;20430;-92
2022/06/14 17:49:39;;;;;;;7.67;4.70;;;23.90;43.50;;;;;;5073718;28;20463;-92
2022/06/14 17:52:42;;;;;;;6.53;5.67;;;23.90;43.70;;;;;;5043334;28;20453;-92
2022/06/14 17:58:51;;;;;;;5.50;4.60;;;23.60;57.70;;;;;;5085483;22;20553;-89
2022/06/14 18:05:02;;;;;;;7.67;4.63;;;23.70;44.40;;;;;;5238426;22;20478;-93
2022/06/14 18:07:47;;;;;;;4.37;4.10;;;22.90;60.70;;;;;;5064719;28;20431;-92
2022/06/14 18:10:40;;;;;;;4.87;4.57;;;23.50;42.70;;;;;;5310020;22;20473;-90
2022/06/14 18:13:48;;;;;;;5.73;4.67;;;23.30;59.30;;;;;;5029195;28;20430;-89
2022/06/14 18:16:18;;;;;;;4.13;3.87;;;;;;;;;;4976840;28;20445;-89
2022/06/14 18:19:05;;;;;;;;;;;;;;;;;;;;;
2022/06/14 18:27:16;;;;;;;4.77;4.27;;;23.00;43.90;;;;;;5003471;28;20517;-90
2022/06/14 18:29:47;;;;;;;6.30;4.87;;;;;;;;;;5349250;23;20492;-92
2022/06/14 18:35:23;;;;;;;6.70;6.17;;;23.00;43.70;;;;;;5963623;22;20537;-90
2022/06/14 18:37:54;;;;;;;4.80;4.40;;;22.90;57.50;;;;;;5075303;28;20446;-92
2022/06/14 18:43:00;;;;;;;7.27;4.83;;;22.80;57.70;;;;;;5250910;22;20456;-94
2022/06/14 18:59:07;;;;;;;10.03;5.27;;;22.70;43.80;;;;;;3164322;26;20550;-90
2022/06/14 19:01:34;;;;;;;4.77;4.47;;;;;;;;;;5057524;28;20441;-94
2022/06/14 19:04:14;;;;;;;5.20;4.90;;;22.50;43.40;;;;;;5092406;28;20448;-92
2022/06/14 19:06:59;;;;;;;4.60;4.30;;;22.30;60.50;;;;;;5067706;28;20436;-94
2022/06/14 19:09:53;;;;;;;6.47;4.70;;;22.40;44.10;;;;;;5091809;28;20539;-93
2022/06/14 19:12:48;;;;;;;4.63;4.40;;;22.40;61.00;;;;;;5085499;28;20445;-90
2022/06/14 19:15:39;;;;;;;4.27;4.07;;;21.10;45.70;;;;;;5100063;28;20414;-93
2022/06/14 19:18:21;;;;;;;11.53;10.33;;;22.20;46.50;;;;;;5068622;28;20432;-93
2022/06/14 19:21:21;;;;;;;4.83;4.63;;;22.10;50.20;;;;;;5082307;28;20448;-94
2022/06/14 19:24:06;;;;;;;6.00;5.60;;;22.10;47.90;;;;;;5074563;28;20440;-94
2022/06/14 19:26:43;;;;;;;5.07;4.77;;;21.80;50.20;;;;;;5071147;28;20422;-93
2022/06/14 19:29:10;;;;;;;4.70;4.30;;;;;;;;;;5056605;28;20447;-92
2022/06/14 19:31:47;;;;;;;5.10;4.83;;;21.80;49.30;;;;;;5085913;28;20441;-92
2022/06/14 19:34:56;;;;;;;4.90;4.50;;;21.60;52.10;;;;;;5071816;28;20441;-92
2022/06/14 19:38:09;;;;;;;5.57;4.20;;;21.60;49.70;;;;;;5087243;28;20491;-91
2022/06/14 20:58:52;;;;;;;3.57;3.40;;;19.50;80.30;;;;;;5779585;22;20491;31
2022/06/14 22:30:37;;;;;;;3.97;3.83;;;;;;;;;;5588441;22;20502;-92
2022/06/14 22:36:07;;;;;;;3.97;3.27;;;17.80;68.10;;;;;;5127182;22;20497;-91
2022/06/14 22:38:45;;;;;;;3.50;3.30;;;;;;;;;;5015656;28;20504;-91
2022/06/14 22:41:43;;;;;;;6.27;5.80;;;17.60;68.50;;;;;;5054857;28;21088;-91
2022/06/14 22:44:15;;;;;;;4.73;4.17;;;;;;;;;;5028731;28;20468;-91
2022/06/14 22:46:45;;;;;;;3.50;3.40;;;;;;;;;;5043139;28;20431;-92
2022/06/14 22:56:48;;;;;;;4.77;3.50;;;17.70;70.90;;;;;;5033019;28;20403;-91
2022/06/14 22:59:46;;;;;;;3.10;3.00;;;17.50;70.50;;;;;;5034317;28;20496;-92
2022/06/14 23:03:20;;;;;;;;;;;;;;;;;;;;;
2022/06/14 23:05:56;;;;;;;3.63;3.20;;;;;;;;;;4960268;28;20468;-92
2022/06/14 23:08:57;;;;;;;3.50;3.30;;;17.40;73.70;;;;;;5036253;28;20438;-92
2022/06/14 23:11:26;;;;;;;7.60;3.30;;;;;;;;;;5023836;28;20418;-92
2022/06/14 23:14:43;;;;;;;4.67;4.27;;;;;;;;;;5057394;28;20482;-93
2022/06/14 23:16:58;;;;;;;3.60;3.33;;;;;;;;;;5029478;28;20799;-92
2022/06/14 23:19:30;;;;;;;2.90;2.80;;;;;;;;;;5023846;28;20479;-91
2022/06/14 23:22:01;;;;;;;3.00;2.90;;;;;;;;;;5042752;28;20450;-92
